Time;durP1;ratioP1;P1;durP2;ratioP2;P2;SDS_P1;SDS_P2;PMS_P1;PMS_P2;Temp;Humidity;BMP_temperature;BMP_pressure;BME280_temperature;BME280_humidity;BME280_pressure;Samples;Min_cycle;Max_cycle;Signal;HPM_P1;HPM_P2
2022/08/28 00:00:18;;;;;;;16.52;10.50;;;17.30;99.90;;;;;;5006529;28;20572;-62
2022/08/28 00:02:45;;;;;;;20.38;10.82;;;17.40;99.90;;;;;;5009918;28;20464;-66
2022/08/28 00:05:14;;;;;;;19.55;12.02;;;17.40;99.90;;;;;;5015594;28;20037;-63
2022/08/28 00:07:39;;;;;;;22.20;12.90;;;17.40;99.90;;;;;;5030510;28;20071;-63
2022/08/28 00:10:07;;;;;;;21.83;12.10;;;17.40;99.90;;;;;;5009767;28;20041;-63
2022/08/28 00:12:35;;;;;;;21.17;11.45;;;17.50;99.90;;;;;;5014370;28;20786;-64
2022/08/28 00:15:01;;;;;;;22.27;12.20;;;17.50;99.90;;;;;;5008067;28;20694;-62
2022/08/28 00:17:27;;;;;;;18.55;11.63;;;17.50;99.90;;;;;;5017282;28;20033;-64
2022/08/28 00:19:52;;;;;;;18.02;11.45;;;17.50;99.90;;;;;;5029265;28;20115;-64
2022/08/28 00:22:18;;;;;;;27.45;14.27;;;17.60;99.90;;;;;;5013451;28;20029;-63
2022/08/28 00:24:44;;;;;;;25.08;14.50;;;17.60;99.90;;;;;;5023602;28;20041;-65
2022/08/28 00:29:54;;;;;;;52.95;10.98;;;17.60;99.90;;;;;;5006213;28;20112;-64
2022/08/28 00:32:22;;;;;;;29.23;10.85;;;17.50;99.90;;;;;;5008129;28;20117;-63
2022/08/28 00:34:48;;;;;;;17.90;10.07;;;17.50;99.90;;;;;;5009506;28;20129;-62
2022/08/28 00:37:14;;;;;;;20.33;11.43;;;17.50;99.90;;;;;;5008439;28;20033;-63
2022/08/28 00:39:40;;;;;;;38.70;11.13;;;17.50;99.90;;;;;;5009288;28;20477;-63
2022/08/28 00:42:06;;;;;;;45.40;11.93;;;17.50;99.90;;;;;;5009944;28;20029;-63
2022/08/28 00:44:31;;;;;;;19.60;10.68;;;17.50;99.90;;;;;;5008509;28;20038;-63
2022/08/28 00:46:58;;;;;;;22.75;11.43;;;17.50;99.90;;;;;;5007875;28;20026;-62
2022/08/28 00:49:29;;;;;;;18.13;11.48;;;17.50;99.90;;;;;;5014005;28;20037;-61
2022/08/28 00:52:04;;;;;;;;;;;17.50;99.90;;;;;;5007808;28;20049;-63
2022/08/28 00:54:33;;;;;;;17.90;9.73;;;17.50;99.90;;;;;;5008991;28;20356;-64
2022/08/28 00:57:02;;;;;;;19.25;11.10;;;17.50;99.90;;;;;;5012774;28;20034;-64
2022/08/28 00:59:28;;;;;;;17.65;11.02;;;17.40;99.90;;;;;;5016528;28;20480;-63
2022/08/28 01:01:57;;;;;;;20.17;12.10;;;17.50;99.90;;;;;;5022217;28;20465;-63
2022/08/28 01:04:26;;;;;;;21.98;13.85;;;17.50;99.90;;;;;;5016300;28;20065;-64
2022/08/28 01:06:55;;;;;;;25.37;13.70;;;17.60;99.90;;;;;;5007725;28;20116;-63
2022/08/28 01:09:23;;;;;;;23.52;13.45;;;17.60;99.90;;;;;;5006644;28;20287;-64
2022/08/28 01:11:52;;;;;;;25.83;14.82;;;17.60;99.90;;;;;;5007568;28;20071;-63
2022/08/28 01:14:22;;;;;;;23.48;14.13;;;17.60;99.90;;;;;;5007343;28;20042;-63
2022/08/28 01:16:54;;;;;;;16.80;10.25;;;17.70;99.90;;;;;;5009149;28;20065;-65
2022/08/28 01:19:27;;;;;;;14.35;9.45;;;17.70;99.90;;;;;;5005818;28;20404;-63
2022/08/28 01:22:10;;;;;;;13.40;9.10;;;17.70;99.90;;;;;;5002746;28;20138;-63
2022/08/28 01:24:38;;;;;;;16.88;10.45;;;17.70;99.90;;;;;;5007440;28;20066;-63
2022/08/28 01:27:05;;;;;;;23.50;11.85;;;17.70;99.90;;;;;;5006915;28;20029;-63
2022/08/28 01:29:30;;;;;;;19.23;12.18;;;17.70;99.90;;;;;;5006119;28;20486;-63
2022/08/28 01:31:56;;;;;;;21.08;11.25;;;17.70;99.90;;;;;;5006012;28;20175;-63
2022/08/28 01:34:22;;;;;;;17.52;10.82;;;17.70;99.90;;;;;;5009363;28;20045;-63
2022/08/28 01:36:48;;;;;;;20.80;11.55;;;17.70;99.90;;;;;;5006263;28;20058;-66
2022/08/28 01:39:17;;;;;;;538.35;20.52;;;17.70;99.90;;;;;;5006790;28;20041;-64
2022/08/28 01:41:46;;;;;;;68.43;11.45;;;17.80;99.90;;;;;;5008031;28;20065;-64
2022/08/28 01:44:14;;;;;;;422.38;19.45;;;17.60;99.90;;;;;;5007890;28;20022;-63
2022/08/28 01:46:41;;;;;;;62.78;10.68;;;17.60;99.90;;;;;;5008161;28;20038;-63
2022/08/28 01:49:10;;;;;;;18.23;9.98;;;17.60;99.90;;;;;;5005533;28;20017;-64
2022/08/28 01:51:37;;;;;;;18.15;9.82;;;17.60;99.90;;;;;;5009304;28;20464;-63
2022/08/28 01:54:03;;;;;;;16.15;9.85;;;17.60;99.90;;;;;;5018022;28;20127;-64
2022/08/28 01:56:29;;;;;;;20.92;10.75;;;17.60;99.90;;;;;;5020663;28;20040;-64
2022/08/28 01:58:54;;;;;;;20.35;12.25;;;17.60;99.90;;;;;;5015995;28;20383;-61
2022/08/28 02:01:21;;;;;;;22.95;13.07;;;17.70;99.90;;;;;;5026288;28;20025;-64
2022/08/28 02:03:48;;;;;;;20.30;11.63;;;17.70;99.90;;;;;;5010248;28;20480;-66
2022/08/28 02:06:14;;;;;;;20.52;12.15;;;17.70;99.90;;;;;;5007682;28;20034;-63
2022/08/28 02:08:40;;;;;;;20.17;12.55;;;17.80;99.90;;;;;;5006072;28;20045;-64
2022/08/28 02:11:07;;;;;;;23.63;13.90;;;17.70;99.90;;;;;;5006773;28;20034;-61
2022/08/28 02:13:35;;;;;;;22.73;14.20;;;17.70;99.90;;;;;;5011813;28;20081;-64
2022/08/28 02:16:01;;;;;;;24.73;14.30;;;17.80;99.90;;;;;;5014761;28;20041;-63
2022/08/28 02:18:27;;;;;;;27.98;15.10;;;17.70;99.90;;;;;;4994081;28;20085;-64
2022/08/28 02:20:52;;;;;;;22.85;12.98;;;17.70;99.90;;;;;;5014267;28;20148;-61
2022/08/28 02:23:18;;;;;;;23.63;12.50;;;17.70;99.90;;;;;;5032297;28;20527;-64
2022/08/28 02:25:44;;;;;;;20.80;11.13;;;17.80;99.90;;;;;;5026876;28;20037;-63
2022/08/28 02:28:09;;;;;;;19.70;11.32;;;17.80;99.90;;;;;;5027838;28;20080;-63
2022/08/28 02:30:35;;;;;;;22.27;12.95;;;17.80;99.90;;;;;;5012908;28;20040;-63
2022/08/28 02:33:01;;;;;;;28.38;12.50;;;17.70;99.90;;;;;;5021261;28;20054;-64
2022/08/28 02:35:27;;;;;;;25.08;11.68;;;17.70;99.90;;;;;;5010217;28;20041;-63
2022/08/28 02:37:53;;;;;;;21.70;12.15;;;17.70;99.90;;;;;;5011757;28;20026;-65
2022/08/28 02:40:21;;;;;;;23.67;13.80;;;17.70;99.90;;;;;;5009762;28;20489;-64
2022/08/28 02:42:48;;;;;;;21.17;12.15;;;17.70;99.90;;;;;;5010036;28;20484;-64
2022/08/28 02:45:14;;;;;;;22.83;13.50;;;17.70;99.90;;;;;;5025558;28;20030;-63
2022/08/28 02:47:42;;;;;;;26.80;12.98;;;17.80;99.90;;;;;;5010013;28;20038;-64
2022/08/28 02:50:11;;;;;;;25.05;12.85;;;17.80;99.90;;;;;;5008628;28;20448;-63
2022/08/28 02:52:37;;;;;;;24.55;14.13;;;17.80;99.90;;;;;;5009476;28;20038;-62
2022/08/28 02:55:08;;;;;;;25.75;12.80;;;17.70;99.90;;;;;;5011104;28;20396;-64
2022/08/28 02:57:34;;;;;;;24.58;13.82;;;17.80;99.90;;;;;;5010120;28;20034;-65
2022/08/28 03:00:01;;;;;;;21.95;12.38;;;17.70;99.90;;;;;;5027920;28;20163;-64
2022/08/28 03:02:26;;;;;;;23.13;12.88;;;17.80;99.90;;;;;;5018142;28;20492;-63
2022/08/28 03:04:53;;;;;;;29.20;13.50;;;17.70;99.90;;;;;;5009680;28;20041;-63
2022/08/28 03:07:20;;;;;;;23.25;13.23;;;17.70;99.90;;;;;;5010400;28;20041;-64
2022/08/28 03:09:46;;;;;;;27.00;15.60;;;17.80;99.90;;;;;;5009613;28;20038;-63
2022/08/28 03:12:12;;;;;;;26.77;15.25;;;17.80;99.90;;;;;;5005260;28;20083;-63
2022/08/28 03:14:38;;;;;;;25.52;13.73;;;17.80;99.90;;;;;;5011810;28;20473;-63
2022/08/28 03:17:06;;;;;;;25.20;14.38;;;17.80;99.90;;;;;;5009758;28;20431;-64
2022/08/28 03:19:32;;;;;;;23.65;14.30;;;17.80;99.90;;;;;;5012586;28;20025;-61
2022/08/28 03:21:58;;;;;;;29.08;14.82;;;17.80;99.90;;;;;;5029443;28;20040;-63
2022/08/28 03:24:24;;;;;;;25.88;14.88;;;17.80;99.90;;;;;;5012867;28;20427;-63
2022/08/28 03:26:49;;;;;;;21.90;13.85;;;17.80;99.90;;;;;;5011523;28;20787;-63
2022/08/28 03:29:15;;;;;;;24.83;14.93;;;17.80;99.90;;;;;;5007962;28;20034;-63
2022/08/28 03:31:41;;;;;;;24.52;14.45;;;17.80;99.90;;;;;;5009218;28;20128;-63
2022/08/28 03:34:07;;;;;;;32.22;14.32;;;17.80;99.90;;;;;;5011406;28;20022;-61
2022/08/28 03:36:33;;;;;;;31.17;16.98;;;17.80;99.90;;;;;;5007200;28;20033;-63
2022/08/28 03:39:01;;;;;;;35.60;18.42;;;17.80;99.90;;;;;;5008689;28;20037;-63
2022/08/28 03:41:28;;;;;;;32.78;17.85;;;17.80;99.90;;;;;;5009010;28;20029;-63
2022/08/28 03:43:56;;;;;;;40.15;19.95;;;17.80;99.90;;;;;;5008713;28;20391;-65
2022/08/28 03:46:24;;;;;;;35.30;20.15;;;17.80;99.90;;;;;;5015047;28;20018;-64
2022/08/28 03:48:51;;;;;;;37.78;19.70;;;17.80;99.90;;;;;;5015282;28;20820;-63
2022/08/28 03:51:19;;;;;;;41.08;19.67;;;17.90;99.90;;;;;;5007728;28;20021;-63
2022/08/28 03:53:46;;;;;;;45.55;22.13;;;17.90;99.90;;;;;;5009301;28;20030;-63
2022/08/28 03:56:20;;;;;;;37.85;21.05;;;17.80;99.90;;;;;;5008675;28;20400;-63
2022/08/28 03:58:50;;;;;;;44.33;23.15;;;17.90;99.90;;;;;;5010007;28;20079;-63
2022/08/28 04:01:17;;;;;;;48.40;23.30;;;17.90;99.90;;;;;;5008278;28;20037;-64
2022/08/28 04:03:43;;;;;;;43.85;23.00;;;17.90;99.90;;;;;;5008979;28;20042;-63
2022/08/28 04:06:09;;;;;;;42.70;22.52;;;17.90;99.90;;;;;;5022068;28;20068;-64
2022/08/28 04:08:35;;;;;;;49.92;23.02;;;17.90;99.90;;;;;;5007382;28;20033;-63
2022/08/28 04:11:01;;;;;;;43.53;23.77;;;17.90;99.90;;;;;;5007240;28;20030;-63
2022/08/28 04:13:28;;;;;;;44.78;23.70;;;17.90;99.90;;;;;;5014320;28;20030;-62
2022/08/28 04:16:03;;;;;;;41.30;22.85;;;17.90;99.90;;;;;;5022369;28;20034;-64
2022/08/28 04:18:30;;;;;;;48.08;23.70;;;17.90;99.90;;;;;;5014638;28;20029;-64
2022/08/28 04:21:01;;;;;;;46.25;23.17;;;17.90;99.90;;;;;;5011821;28;20041;-66
2022/08/28 04:23:28;;;;;;;46.97;23.50;;;17.80;99.90;;;;;;5012387;28;20113;-63
2022/08/28 04:25:54;;;;;;;42.97;23.17;;;17.80;99.90;;;;;;5010188;28;20388;-63
2022/08/28 04:28:21;;;;;;;44.53;23.38;;;17.80;99.90;;;;;;5007212;28;20034;-63
2022/08/28 04:30:50;;;;;;;42.08;23.13;;;17.90;99.90;;;;;;5010050;28;20587;-63
2022/08/28 04:33:16;;;;;;;43.63;21.88;;;17.90;99.90;;;;;;5011311;28;20383;-63
2022/08/28 04:35:42;;;;;;;41.70;22.98;;;17.80;99.90;;;;;;5008495;28;20037;-63
2022/08/28 04:38:07;;;;;;;44.42;23.77;;;17.80;99.90;;;;;;5010014;28;20025;-63
2022/08/28 04:40:33;;;;;;;43.85;22.85;;;17.80;99.90;;;;;;5006104;28;20034;-65
2022/08/28 04:42:59;;;;;;;47.22;22.10;;;17.80;99.90;;;;;;5026840;28;20034;-66
2022/08/28 04:45:24;;;;;;;42.45;23.15;;;17.80;99.90;;;;;;5025718;28;20030;-61
2022/08/28 04:47:50;;;;;;;40.15;22.70;;;17.80;99.90;;;;;;5007737;28;20451;-64
2022/08/28 04:50:15;;;;;;;42.65;21.63;;;17.90;99.90;;;;;;5009118;28;20070;-62
2022/08/28 04:52:42;;;;;;;52.38;23.95;;;17.90;99.90;;;;;;5003866;28;20038;-63
2022/08/28 04:55:09;;;;;;;47.60;25.30;;;17.80;99.90;;;;;;5002978;28;20038;-64
2022/08/28 04:57:34;;;;;;;42.53;22.40;;;17.90;99.90;;;;;;5006721;28;20037;-66
2022/08/28 05:00:00;;;;;;;51.35;25.40;;;17.80;99.90;;;;;;5005240;28;20033;-65
2022/08/28 05:02:26;;;;;;;49.72;25.15;;;17.80;99.90;;;;;;5027701;28;20411;-62
2022/08/28 05:04:52;;;;;;;45.65;23.65;;;17.70;99.90;;;;;;5018010;28;20038;-64
2022/08/28 05:07:17;;;;;;;51.47;24.58;;;17.80;99.90;;;;;;5000763;28;20143;-63
2022/08/28 05:09:43;;;;;;;46.63;24.20;;;17.80;99.90;;;;;;5001562;28;20030;-64
2022/08/28 05:12:14;;;;;;;49.33;24.08;;;17.80;99.90;;;;;;5013770;28;20540;-63
2022/08/28 05:14:40;;;;;;;48.30;24.20;;;17.80;99.90;;;;;;5027280;28;20052;-62
2022/08/28 05:17:06;;;;;;;45.97;23.42;;;17.70;99.90;;;;;;5006317;28;20385;-62
2022/08/28 05:19:32;;;;;;;45.83;23.33;;;17.70;99.90;;;;;;5008463;28;20076;-62
2022/08/28 05:21:58;;;;;;;43.58;22.83;;;17.70;99.90;;;;;;5004360;28;20030;-64
2022/08/28 05:24:24;;;;;;;50.45;24.10;;;17.70;99.90;;;;;;5002302;28;20052;-64
2022/08/28 05:26:50;;;;;;;46.78;22.25;;;17.80;99.90;;;;;;5006920;28;20472;-61
2022/08/28 05:29:15;;;;;;;44.58;22.35;;;17.80;99.90;;;;;;5004472;28;20539;-63
2022/08/28 05:31:41;;;;;;;40.25;22.40;;;17.80;99.90;;;;;;5019273;28;20049;-64
2022/08/28 05:34:07;;;;;;;44.70;24.40;;;17.80;99.90;;;;;;5005265;28;20396;-63
2022/08/28 05:36:36;;;;;;;44.90;23.10;;;17.80;99.90;;;;;;5002983;28;20058;-61
2022/08/28 05:39:05;;;;;;;49.97;25.38;;;17.80;99.90;;;;;;5001949;28;20032;-65
2022/08/28 05:41:31;;;;;;;47.67;23.52;;;17.80;99.90;;;;;;5011669;28;20154;-63
2022/08/28 05:44:05;;;;;;;47.65;23.30;;;17.80;99.90;;;;;;5007395;28;20140;-62
2022/08/28 05:46:31;;;;;;;42.88;24.15;;;17.80;99.90;;;;;;5016216;28;20030;-63
2022/08/28 05:48:58;;;;;;;44.72;24.23;;;17.90;99.90;;;;;;5008575;28;20030;-63
2022/08/28 05:51:25;;;;;;;52.72;23.85;;;17.90;99.90;;;;;;5009500;28;20069;-63
2022/08/28 05:53:52;;;;;;;48.97;23.73;;;18.00;99.90;;;;;;5013899;28;20136;-63
2022/08/28 05:56:21;;;;;;;47.17;23.63;;;18.00;99.90;;;;;;5021802;28;20024;-63
2022/08/28 05:58:47;;;;;;;44.55;23.92;;;18.00;99.90;;;;;;5017678;28;20026;-62
2022/08/28 06:01:16;;;;;;;40.63;22.40;;;18.00;99.90;;;;;;5012259;28;20038;-64
2022/08/28 06:03:54;;;;;;;46.05;23.67;;;18.00;99.90;;;;;;5023677;28;20044;-62
2022/08/28 06:06:20;;;;;;;46.60;22.80;;;18.00;99.90;;;;;;5011686;28;20137;-64
2022/08/28 06:08:46;;;;;;;50.90;22.13;;;18.00;99.90;;;;;;5011074;28;20029;-63
2022/08/28 06:11:12;;;;;;;41.17;22.08;;;18.00;99.90;;;;;;5031706;28;20033;-63
2022/08/28 06:13:38;;;;;;;44.33;23.73;;;18.00;99.90;;;;;;5016855;28;20771;-63
2022/08/28 06:16:04;;;;;;;43.88;23.13;;;18.00;99.90;;;;;;4998736;28;20034;-65
2022/08/28 06:18:30;;;;;;;39.45;21.52;;;18.00;99.90;;;;;;5004234;28;20018;-62
2022/08/28 06:21:00;;;;;;;47.88;23.13;;;18.00;99.90;;;;;;5012787;28;20571;-61
2022/08/28 06:23:25;;;;;;;44.45;22.88;;;18.00;99.90;;;;;;5023604;28;20026;-63
2022/08/28 06:25:51;;;;;;;39.75;22.40;;;18.00;99.90;;;;;;5032485;28;20083;-62
2022/08/28 06:28:20;;;;;;;47.25;23.08;;;18.10;99.90;;;;;;5028640;28;20392;-64
2022/08/28 06:30:46;;;;;;;45.22;22.70;;;18.10;99.90;;;;;;5029050;28;20045;-63
2022/08/28 06:33:15;;;;;;;43.78;22.67;;;18.10;99.90;;;;;;5018240;28;20539;-64
2022/08/28 06:35:42;;;;;;;41.67;22.42;;;18.20;99.90;;;;;;5006341;28;20045;-63
2022/08/28 06:38:11;;;;;;;47.70;24.65;;;18.20;99.90;;;;;;5007185;28;20397;-65
2022/08/28 06:40:42;;;;;;;39.38;21.63;;;18.20;99.90;;;;;;5020736;28;20033;-63
2022/08/28 06:43:09;;;;;;;41.97;23.20;;;18.20;99.90;;;;;;5009959;28;20030;-64
2022/08/28 06:45:39;;;;;;;42.78;21.75;;;18.20;99.90;;;;;;5006106;28;20026;-62
2022/08/28 06:48:05;;;;;;;44.92;21.95;;;18.30;99.90;;;;;;5010768;28;20559;-63
2022/08/28 06:50:31;;;;;;;45.08;22.15;;;18.30;99.90;;;;;;5011255;28;20080;-64
2022/08/28 06:52:57;;;;;;;50.08;23.17;;;18.20;99.90;;;;;;5008030;28;20061;-63
2022/08/28 06:55:23;;;;;;;44.58;23.27;;;18.20;99.90;;;;;;5016048;28;20042;-63
2022/08/28 06:57:49;;;;;;;43.03;22.65;;;18.30;99.90;;;;;;5006622;28;20091;-62
2022/08/28 07:00:15;;;;;;;40.78;22.45;;;18.30;99.90;;;;;;5008332;28;20034;-62
2022/08/28 07:02:40;;;;;;;39.72;21.15;;;18.30;99.90;;;;;;5007635;28;21297;-62
2022/08/28 07:05:07;;;;;;;44.25;21.48;;;18.30;99.90;;;;;;5005990;28;20079;-63
2022/08/28 07:07:33;;;;;;;35.42;20.38;;;18.20;99.90;;;;;;5008153;28;20073;-64
2022/08/28 07:09:59;;;;;;;37.80;21.38;;;18.20;99.90;;;;;;5021239;28;20033;-63
2022/08/28 07:12:25;;;;;;;41.55;21.52;;;18.20;99.90;;;;;;5030693;28;20034;-63
2022/08/28 07:14:50;;;;;;;41.47;21.52;;;18.20;99.90;;;;;;5007655;28;20042;-64
2022/08/28 07:17:16;;;;;;;36.97;20.83;;;18.30;99.90;;;;;;5007314;28;20022;-62
2022/08/28 07:19:42;;;;;;;38.67;20.80;;;18.20;99.90;;;;;;5005377;28;20084;-62
2022/08/28 07:22:07;;;;;;;38.72;21.13;;;18.30;99.90;;;;;;5008935;28;20034;-64
2022/08/28 07:24:33;;;;;;;41.00;20.75;;;18.30;99.90;;;;;;5010976;28;20088;-68
2022/08/28 07:26:59;;;;;;;41.67;20.80;;;18.40;99.90;;;;;;5007061;28;20425;-62
2022/08/28 07:29:24;;;;;;;39.05;20.08;;;18.40;99.90;;;;;;5010642;28;20022;-63
2022/08/28 07:31:54;;;;;;;37.03;20.13;;;18.50;99.90;;;;;;5011315;28;20147;-63
2022/08/28 07:34:21;;;;;;;45.75;23.10;;;18.50;99.90;;;;;;5011542;28;20037;-63
2022/08/28 07:36:50;;;;;;;46.10;22.67;;;18.60;99.90;;;;;;5013303;28;20033;-63
2022/08/28 07:39:16;;;;;;;42.50;21.48;;;18.50;99.90;;;;;;5013346;28;20030;-64
2022/08/28 07:41:43;;;;;;;35.78;19.90;;;18.50;99.90;;;;;;5012660;28;20379;-62
2022/08/28 07:46:58;;;;;;;37.35;19.77;;;18.60;99.90;;;;;;5008572;28;20068;-62
2022/08/28 07:49:24;;;;;;;39.08;20.20;;;18.50;99.90;;;;;;5006428;28;20444;-64
2022/08/28 07:51:50;;;;;;;36.92;19.90;;;18.50;99.90;;;;;;5008128;28;20542;-64
2022/08/28 07:54:16;;;;;;;36.92;18.65;;;18.50;99.90;;;;;;5008764;28;20105;-64
2022/08/28 07:56:42;;;;;;;42.90;20.20;;;18.50;99.90;;;;;;5009856;28;20444;-64
2022/08/28 07:59:10;;;;;;;40.50;19.00;;;18.50;99.90;;;;;;5005450;28;20041;-64
2022/08/28 08:01:42;;;;;;;33.83;18.52;;;18.40;99.90;;;;;;5005426;28;20037;-62
2022/08/28 08:04:11;;;;;;;37.35;18.95;;;18.50;99.90;;;;;;5006748;28;20049;-62
2022/08/28 08:06:37;;;;;;;36.95;19.55;;;18.70;99.90;;;;;;5010682;28;20022;-63
2022/08/28 08:09:04;;;;;;;39.17;19.92;;;18.80;99.90;;;;;;5009680;28;20365;-64
2022/08/28 08:11:31;;;;;;;33.40;17.33;;;18.90;99.90;;;;;;5009819;28;20090;-63
2022/08/28 08:14:00;;;;;;;32.97;19.08;;;18.80;99.90;;;;;;5009670;28;20057;-63
2022/08/28 08:16:26;;;;;;;36.03;18.33;;;18.80;99.90;;;;;;5009795;28;20085;-63
2022/08/28 08:18:52;;;;;;;33.38;18.38;;;18.90;99.90;;;;;;5010642;28;20057;-63
2022/08/28 08:21:20;;;;;;;30.42;16.67;;;19.10;99.90;;;;;;5009939;28;20120;-63
2022/08/28 08:23:46;;;;;;;35.75;16.95;;;19.20;99.90;;;;;;5009348;28;20392;-63
2022/08/28 08:26:18;;;;;;;37.70;18.23;;;19.10;99.90;;;;;;5010293;28;20109;-67
2022/08/28 08:28:45;;;;;;;32.28;18.15;;;19.20;99.90;;;;;;5010475;28;20038;-64
2022/08/28 08:31:31;;;;;;;33.28;18.17;;;19.30;99.90;;;;;;5010090;28;20152;-66
2022/08/28 08:34:03;;;;;;;35.10;17.30;;;19.20;99.90;;;;;;5009971;28;20045;-63
2022/08/28 08:36:30;;;;;;;29.58;16.75;;;19.20;99.90;;;;;;5009678;28;20037;-63
2022/08/28 08:38:57;;;;;;;32.25;17.85;;;19.30;99.90;;;;;;5009457;28;20070;-62
2022/08/28 08:41:26;;;;;;;29.98;17.35;;;19.50;99.90;;;;;;5009459;28;20045;-63
2022/08/28 08:44:22;;;;;;;29.02;16.70;;;19.60;99.90;;;;;;5010271;28;20472;-63
2022/08/28 08:47:09;;;;;;;26.42;15.60;;;19.70;99.90;;;;;;5010550;28;20439;-62
2022/08/28 08:49:42;;;;;;;28.42;16.38;;;19.90;99.90;;;;;;5009254;28;20037;-63
2022/08/28 08:52:11;;;;;;;26.80;16.10;;;19.90;99.90;;;;;;5010172;28;20030;-63
2022/08/28 08:54:42;;;;;;;27.35;15.38;;;20.00;99.90;;;;;;5007811;28;20029;-63
2022/08/28 08:57:13;;;;;;;30.35;16.88;;;20.00;99.90;;;;;;5010087;28;20038;-62
2022/08/28 08:59:40;;;;;;;28.35;16.02;;;20.10;99.90;;;;;;5009433;28;20033;-63
2022/08/28 09:02:23;;;;;;;30.05;15.90;;;20.20;99.90;;;;;;5008495;28;20441;-63
2022/08/28 09:05:06;;;;;;;29.50;16.80;;;20.10;99.90;;;;;;5009040;28;20041;-63
2022/08/28 09:07:37;;;;;;;24.70;15.27;;;20.20;99.90;;;;;;5009217;28;20218;-63
2022/08/28 09:10:10;;;;;;;31.75;15.90;;;20.40;99.90;;;;;;5009762;28;20495;-64
2022/08/28 09:13:05;;;;;;;25.27;15.98;;;20.60;99.90;;;;;;5000247;28;20030;-63
2022/08/28 09:15:34;;;;;;;26.08;14.88;;;20.70;99.90;;;;;;5003091;28;20603;-63
2022/08/28 09:18:20;;;;;;;28.42;14.63;;;20.70;99.90;;;;;;5004447;28;20026;-64
2022/08/28 09:20:55;;;;;;;25.67;14.00;;;20.70;99.90;;;;;;5004509;28;20049;-63
2022/08/28 09:23:23;;;;;;;25.63;15.05;;;20.70;99.90;;;;;;5004171;28;20044;-63
2022/08/28 09:25:59;;;;;;;24.70;14.70;;;20.60;99.90;;;;;;5009586;28;20041;-63
2022/08/28 09:28:30;;;;;;;30.42;16.35;;;20.60;99.90;;;;;;5009658;28;20049;-62
2022/08/28 09:31:09;;;;;;;26.42;14.48;;;20.40;99.90;;;;;;5016291;28;20050;-62
2022/08/28 09:33:37;;;;;;;28.63;14.68;;;20.40;99.90;;;;;;5008084;28;20306;-63
2022/08/28 09:36:33;;;;;;;27.92;15.20;;;20.40;99.90;;;;;;5022185;28;20030;-64
2022/08/28 09:39:31;;;;;;;24.98;14.68;;;20.60;99.90;;;;;;5027255;28;20049;-63
2022/08/28 09:45:05;;;;;;;25.55;14.27;;;21.00;99.90;;;;;;5000315;28;20041;-63
2022/08/28 09:47:52;;;;;;;27.17;14.48;;;21.10;99.90;;;;;;5000029;28;20026;-61
2022/08/28 09:50:43;;;;;;;28.73;13.68;;;21.30;99.90;;;;;;5017934;28;20043;-67
2022/08/28 09:53:08;;;;;;;22.05;13.93;;;21.70;99.90;;;;;;5022797;28;20025;-61
2022/08/28 09:55:43;;;;;;;20.98;13.13;;;21.90;99.90;;;;;;5007119;28;20628;-63
2022/08/28 09:58:09;;;;;;;21.30;13.23;;;21.90;99.90;;;;;;5009165;28;20041;-63
2022/08/28 10:00:42;;;;;;;21.73;12.48;;;21.90;99.90;;;;;;5002613;28;20096;-62
2022/08/28 10:03:18;;;;;;;22.80;12.43;;;21.90;99.90;;;;;;5000110;28;20487;-61
2022/08/28 10:05:58;;;;;;;24.30;13.13;;;21.80;99.90;;;;;;5011345;28;20030;-61
2022/08/28 10:08:55;;;;;;;22.25;12.13;;;21.80;99.90;;;;;;5004295;28;20576;-63
2022/08/28 10:11:32;;;;;;;20.10;11.82;;;21.80;99.90;;;;;;5002040;28;20050;-63
2022/08/28 10:14:09;;;;;;;23.45;12.30;;;21.80;99.90;;;;;;5007973;28;20073;-61
2022/08/28 10:16:48;;;;;;;25.33;13.98;;;21.70;99.90;;;;;;4996387;28;20030;-63
2022/08/28 10:19:43;;;;;;;26.63;13.15;;;21.90;99.90;;;;;;5019731;28;20083;-61
2022/08/28 10:22:44;;;;;;;26.33;13.57;;;22.00;99.90;;;;;;5017141;28;20091;-64
2022/08/28 10:25:39;;;;;;;21.67;12.90;;;21.80;99.90;;;;;;4989668;28;20030;-62
2022/08/28 10:28:41;;;;;;;22.00;12.95;;;22.20;99.90;;;;;;4999515;28;20026;-63
2022/08/28 10:31:24;;;;;;;19.58;11.75;;;22.80;99.90;;;;;;5011140;28;20441;-61
2022/08/28 10:34:03;;;;;;;20.45;10.63;;;23.00;99.90;;;;;;5013423;28;20057;-61
2022/08/28 10:36:31;;;;;;;17.20;10.23;;;23.40;99.90;;;;;;5030221;28;20033;-64
2022/08/28 10:39:14;;;;;;;19.38;10.60;;;23.80;99.90;;;;;;5008631;28;20030;-63
2022/08/28 10:41:57;;;;;;;23.70;12.77;;;24.10;99.90;;;;;;5014665;28;20025;-62
2022/08/28 10:44:50;;;;;;;23.58;13.25;;;24.20;99.90;;;;;;5015020;28;20080;-65
2022/08/28 10:47:19;;;;;;;20.08;11.75;;;23.90;99.90;;;;;;4962720;28;20038;-64
2022/08/28 10:49:48;;;;;;;18.63;11.88;;;23.50;99.90;;;;;;5010943;28;20044;-63
2022/08/28 10:52:29;;;;;;;22.88;12.23;;;23.40;99.90;;;;;;5014492;28;20443;-63
2022/08/28 10:55:12;;;;;;;18.42;11.88;;;23.20;99.90;;;;;;5008454;28;20030;-62
2022/08/28 10:57:56;;;;;;;22.05;11.73;;;23.00;99.90;;;;;;5005217;28;20041;-63
2022/08/28 11:00:25;;;;;;;18.33;11.70;;;23.10;99.90;;;;;;5009004;28;20121;-63
2022/08/28 11:03:07;;;;;;;20.38;11.70;;;23.20;99.90;;;;;;5013814;28;20038;-60
2022/08/28 11:05:39;;;;;;;21.35;11.43;;;23.20;99.90;;;;;;5019349;28;20445;-62
2022/08/28 11:08:10;;;;;;;16.70;11.00;;;23.20;99.90;;;;;;5016324;28;20092;-61
2022/08/28 11:10:47;;;;;;;21.05;10.52;;;23.30;99.90;;;;;;5010218;28;20091;-63
2022/08/28 11:13:45;;;;;;;15.02;10.05;;;23.60;99.90;;;;;;5008664;28;20026;-63
2022/08/28 11:16:37;;;;;;;19.92;10.00;;;24.00;99.90;;;;;;5008309;28;20030;-63
2022/08/28 11:19:18;;;;;;;15.93;9.80;;;24.30;99.90;;;;;;5000145;28;20069;-63
2022/08/28 11:21:47;;;;;;;20.55;10.82;;;24.40;99.90;;;;;;5025057;28;20083;-63
2022/08/28 11:24:24;;;;;;;13.35;8.98;;;24.80;99.90;;;;;;5021280;28;20426;-63
2022/08/28 11:27:12;;;;;;;15.10;8.68;;;25.00;99.90;;;;;;5029482;28;20100;-62
2022/08/28 11:29:58;;;;;;;12.45;8.55;;;25.20;99.90;;;;;;5000262;28;20077;-61
2022/08/28 11:32:33;;;;;;;15.30;8.43;;;25.40;99.90;;;;;;5012487;28;20484;-62
2022/08/28 11:35:01;;;;;;;15.23;8.70;;;25.70;99.90;;;;;;5016037;28;20447;-62
2022/08/28 11:37:42;;;;;;;14.68;8.18;;;25.60;99.90;;;;;;5005489;28;20239;-60
2022/08/28 11:40:30;;;;;;;16.05;9.23;;;25.50;99.90;;;;;;5009216;28;20034;-63
2022/08/28 11:43:14;;;;;;;12.13;7.40;;;25.40;99.90;;;;;;5006561;28;20485;-63
2022/08/28 11:45:44;;;;;;;11.35;8.02;;;25.00;99.90;;;;;;5013966;28;20033;-62
2022/08/28 11:48:21;;;;;;;19.85;7.85;;;25.00;99.90;;;;;;5010327;28;20036;-61
2022/08/28 11:51:01;;;;;;;15.63;8.18;;;25.20;99.90;;;;;;5007130;28;20038;-63
2022/08/28 11:53:53;;;;;;;12.10;8.00;;;25.40;99.90;;;;;;5002770;28;20049;-64
2022/08/28 11:56:34;;;;;;;11.05;6.82;;;25.50;99.90;;;;;;5003036;28;20034;-61
2022/08/28 11:59:19;;;;;;;14.77;7.70;;;25.80;99.90;;;;;;5006075;28;20037;-63
2022/08/28 12:01:45;;;;;;;15.27;7.70;;;26.10;99.90;;;;;;5008341;28;20032;-61
2022/08/28 12:04:14;;;;;;;20.65;7.80;;;26.10;99.90;;;;;;5007196;28;20037;-62
2022/08/28 12:06:49;;;;;;;12.15;7.97;;;25.80;99.90;;;;;;5008191;28;20103;-62
2022/08/28 12:09:37;;;;;;;9.63;7.07;;;25.50;99.90;;;;;;5005726;28;20038;-61
2022/08/28 12:12:25;;;;;;;14.77;7.35;;;25.30;99.90;;;;;;5008946;28;20034;-63
2022/08/28 12:14:59;;;;;;;11.93;7.65;;;25.00;99.90;;;;;;4965199;28;20520;-63
2022/08/28 12:17:37;;;;;;;15.27;8.20;;;24.80;99.90;;;;;;5004853;28;20768;-64
2022/08/28 12:20:04;;;;;;;11.73;8.25;;;24.80;99.90;;;;;;5015881;28;20144;-63
2022/08/28 12:23:19;;;;;;;13.50;8.00;;;24.80;99.90;;;;;;5011045;28;20080;-61
2022/08/28 12:25:46;;;;;;;12.45;7.93;;;25.40;99.90;;;;;;4929190;28;20233;-63
2022/08/28 12:28:24;;;;;;;10.95;7.97;;;25.80;99.90;;;;;;5005630;28;20088;-63
2022/08/28 12:32:09;;;;;;;16.13;8.32;;;25.90;99.90;;;;;;5002865;28;20120;-63
2022/08/28 12:34:22;;;;;;;14.77;7.53;;;26.10;99.90;;;;;;5005369;28;20042;-62
2022/08/28 12:36:58;;;;;;;12.65;7.68;;;26.60;99.90;;;;;;4999668;28;20018;-63
2022/08/28 12:39:25;;;;;;;12.50;7.60;;;26.90;99.90;;;;;;5009832;28;20042;-64
2022/08/28 12:41:51;;;;;;;13.68;7.68;;;26.90;99.90;;;;;;5010122;28;20038;-62
2022/08/28 12:44:27;;;;;;;12.18;7.45;;;27.00;99.90;;;;;;5010140;28;20036;-63
2022/08/28 12:46:54;;;;;;;10.00;7.43;;;26.40;99.90;;;;;;4992297;28;20448;-64
2022/08/28 12:49:35;;;;;;;18.58;7.65;;;26.40;99.90;;;;;;5009162;28;20468;-62
2022/08/28 12:52:14;;;;;;;11.23;7.07;;;26.70;99.90;;;;;;5010044;28;20060;-62
2022/08/28 12:54:41;;;;;;;19.35;8.27;;;26.40;99.90;;;;;;5009139;28;20106;-63